Terminal Aerodrome Forecast
Issued by NWS Indianapolis, IN

Home | Current Version | Previous Version | Text Only | Print | Product List | Glossary On
Versions: 1 2 3 4 5 6 7 8 9 10 11 12 13 14 15 16 17 18 19 20 21 22 23 24 25
000
FTUS43 KIND 281744 AAA
TAFIND
TAF AMD
KIND 281744Z 2818/2924 31005KT P6SM VCTS SCT030CB BKN060
     FM282200 31006KT P6SM VCSH BKN060
     FM290300 31006KT P6SM BKN070 PROB30 2903/2906 4SM -SHRA OVC025
     FM290600 33005KT P6SM BKN025 PROB30 2906/2907 4SM -SHRA OVC015
     FM290700 34006KT P6SM BKN015 PROB30 2907/2911 4SM -SHRA OVC005
     FM291100 01007KT 5SM BR BKN010 PROB30 2911/2912 2SM -SHRA BR
      OVC005
     FM291500 03008KT P6SM OVC010
     FM291600 02008KT P6SM BKN020
     FM291700 02008KT P6SM BKN040=

USA.gov is the U.S. government's official web portal to all federal, state and local government web resources and services.